Time;durP1;ratioP1;P1;durP2;ratioP2;P2;SDS_P1;SDS_P2;PMS_P1;PMS_P2;Temp;Humidity;BMP_temperature;BMP_pressure;BME280_temperature;BME280_humidity;BME280_pressure;Samples;Min_cycle;Max_cycle;Signal;HPM_P1;HPM_P2
2024/01/31 00:02:14;;;;;;;29.83;15.87;;;;;;;6.59;100.00;102175.50;4968215;28;20214;-69
2024/01/31 00:04:42;;;;;;;23.57;13.97;;;;;;;6.58;100.00;102188.56;4967680;28;20207;-69
2024/01/31 00:07:08;;;;;;;27.07;14.50;;;;;;;6.65;100.00;102193.34;4966804;28;20630;-69
2024/01/31 00:09:35;;;;;;;27.50;15.53;;;;;;;6.60;100.00;102186.94;4965041;28;20574;-69
2024/01/31 00:12:01;;;;;;;29.83;15.13;;;;;;;6.53;100.00;102187.38;4965533;28;20281;-68
2024/01/31 00:14:28;;;;;;;24.90;15.00;;;;;;;6.55;100.00;102186.66;4963608;28;20205;-68
2024/01/31 00:16:54;;;;;;;27.17;15.07;;;;;;;6.50;100.00;102174.06;4966879;28;20197;-68
2024/01/31 00:19:23;;;;;;;30.53;15.17;;;;;;;6.48;100.00;102179.22;4965583;28;20579;-69
2024/01/31 00:21:49;;;;;;;31.57;16.53;;;;;;;6.63;100.00;102181.84;4957629;28;20209;-68
2024/01/31 00:24:16;;;;;;;26.93;16.00;;;;;;;6.71;100.00;102185.81;4967970;28;20221;-69
2024/01/31 00:26:42;;;;;;;28.33;16.43;;;;;;;6.64;100.00;102194.19;4968323;28;20564;-69
2024/01/31 00:29:08;;;;;;;30.67;16.37;;;;;;;6.54;100.00;102181.31;4962239;28;20291;-68
2024/01/31 00:31:35;;;;;;;29.00;16.67;;;;;;;6.46;100.00;102196.66;4966565;28;20581;-69
2024/01/31 00:34:04;;;;;;;31.70;16.83;;;;;;;6.48;100.00;102194.13;4964724;28;20313;-69
2024/01/31 00:36:30;;;;;;;30.57;16.67;;;;;;;6.44;100.00;102194.75;4965673;28;20239;-69
2024/01/31 00:38:57;;;;;;;29.93;17.00;;;;;;;6.48;100.00;102202.00;4969371;28;20197;-68
2024/01/31 00:41:23;;;;;;;32.40;17.73;;;;;;;6.48;100.00;102207.28;4962320;28;20662;-69
2024/01/31 00:43:50;;;;;;;32.80;17.10;;;;;;;6.46;100.00;102199.28;4965656;28;20239;-69
2024/01/31 00:46:17;;;;;;;39.07;18.17;;;;;;;6.46;100.00;102199.28;4966161;28;20201;-68
2024/01/31 00:48:44;;;;;;;36.20;19.67;;;;;;;6.47;100.00;102195.84;4966697;28;20198;-69
2024/01/31 00:51:11;;;;;;;35.37;17.93;;;;;;;6.46;100.00;102183.50;4960326;28;20566;-69
2024/01/31 00:53:40;;;;;;;35.40;19.30;;;;;;;6.59;100.00;102185.09;4966753;28;20235;-69
2024/01/31 00:56:08;;;;;;;37.00;19.13;;;;;;;6.56;100.00;102171.78;4966745;28;20300;-68
2024/01/31 00:58:35;;;;;;;32.43;18.17;;;;;;;6.66;100.00;102179.38;4965433;28;20205;-69
2024/01/31 01:01:02;;;;;;;34.80;18.30;;;;;;;6.57;100.00;102181.47;4968726;28;20202;-69
2024/01/31 01:03:29;;;;;;;36.63;19.23;;;;;;;6.53;100.00;102176.88;4963322;28;20222;-69
2024/01/31 01:05:56;;;;;;;32.80;17.70;;;;;;;6.51;100.00;102178.50;4965261;28;20224;-70
2024/01/31 01:08:22;;;;;;;31.80;17.40;;;;;;;6.50;100.00;102190.75;4964372;28;20263;-70
2024/01/31 01:10:49;;;;;;;32.43;18.67;;;;;;;6.65;100.00;102185.47;4963764;28;20204;-69
2024/01/31 01:13:15;;;;;;;29.97;17.33;;;;;;;6.54;100.00;102187.47;4970279;28;20257;-69
2024/01/31 01:15:41;;;;;;;35.60;18.93;;;;;;;6.48;100.00;102192.38;4968026;28;20235;-69
2024/01/31 01:18:08;;;;;;;39.53;18.83;;;;;;;6.48;100.00;102194.13;4966665;28;20204;-68
2024/01/31 01:20:34;;;;;;;33.70;17.80;;;;;;;6.47;100.00;102192.31;4962592;28;20202;-69
2024/01/31 01:23:01;;;;;;;34.00;18.50;;;;;;;6.40;100.00;102193.63;4968072;28;20256;-69
2024/01/31 01:25:27;;;;;;;33.87;19.00;;;;;;;6.42;100.00;102191.13;4963771;28;20629;-69
2024/01/31 01:27:54;;;;;;;36.00;18.40;;;;;;;6.37;100.00;102182.03;4968990;28;20225;-69
2024/01/31 01:30:21;;;;;;;35.17;18.33;;;;;;;6.31;100.00;102189.56;4971598;28;20207;-70
2024/01/31 01:32:47;;;;;;;34.33;17.83;;;;;;;6.21;100.00;102203.91;4970805;28;20222;-69
2024/01/31 01:35:14;;;;;;;33.30;18.17;;;;;;;6.14;100.00;102200.00;4972781;28;20193;-69
2024/01/31 01:37:40;;;;;;;32.50;17.83;;;;;;;6.07;100.00;102200.44;4967360;28;20207;-69
2024/01/31 01:40:08;;;;;;;35.73;18.47;;;;;;;6.12;100.00;102200.72;4971067;28;20201;-69
2024/01/31 01:42:38;;;;;;;33.70;18.17;;;;;;;6.05;100.00;102195.91;4967752;28;20232;-69
2024/01/31 01:45:05;;;;;;;32.03;17.80;;;;;;;5.96;100.00;102199.78;4970629;28;20292;-70
2024/01/31 01:47:31;;;;;;;33.73;19.13;;;;;;;5.90;100.00;102194.16;4964396;28;20826;-68
2024/01/31 01:49:58;;;;;;;32.53;18.13;;;;;;;5.89;100.00;102194.03;4973007;28;20584;-70
2024/01/31 01:52:25;;;;;;;35.57;18.30;;;;;;;5.94;100.00;102197.88;4968898;28;20644;-69
2024/01/31 01:54:52;;;;;;;29.53;17.33;;;;;;;5.94;100.00;102203.13;4968630;28;20210;-69
2024/01/31 01:57:19;;;;;;;33.50;18.37;;;;;;;5.83;100.00;102198.91;4969912;28;20742;-69
2024/01/31 01:59:46;;;;;;;32.93;17.07;;;;;;;5.79;100.00;102196.91;4970287;28;20198;-69
2024/01/31 02:02:12;;;;;;;31.07;18.10;;;;;;;5.90;100.00;102219.53;4967017;28;20201;-69
2024/01/31 02:04:39;;;;;;;31.93;17.53;;;;;;;5.87;100.00;102214.06;4968796;28;20244;-69
2024/01/31 02:07:06;;;;;;;27.77;16.33;;;;;;;5.74;100.00;102204.50;4970353;28;20290;-69
2024/01/31 02:09:32;;;;;;;34.07;17.00;;;;;;;5.77;100.00;102214.31;4966617;28;20232;-69
2024/01/31 02:11:59;;;;;;;31.17;17.60;;;;;;;5.71;100.00;102206.94;4967865;28;20208;-69
2024/01/31 02:14:25;;;;;;;30.93;17.73;;;;;;;5.70;100.00;102217.38;4969352;28;20204;-69
2024/01/31 02:16:56;;;;;;;31.00;17.03;;;;;;;5.70;100.00;102213.03;4969669;28;20213;-69
2024/01/31 02:19:23;;;;;;;29.07;16.73;;;;;;;5.80;100.00;102204.88;4963951;28;20229;-69
2024/01/31 02:21:52;;;;;;;33.50;16.70;;;;;;;5.78;100.00;102206.50;4968962;28;20202;-69
2024/01/31 02:24:19;;;;;;;31.93;17.27;;;;;;;5.74;100.00;102212.41;4969516;28;20224;-70
2024/01/31 02:26:46;;;;;;;25.97;14.70;;;;;;;5.85;100.00;102219.22;4971977;28;20203;-69
2024/01/31 02:29:13;;;;;;;30.57;16.80;;;;;;;5.92;100.00;102215.28;4978606;28;20194;-69
2024/01/31 02:31:39;;;;;;;29.40;15.50;;;;;;;5.85;100.00;102218.31;4978980;28;20208;-69
2024/01/31 02:34:05;;;;;;;28.47;15.13;;;;;;;5.83;100.00;102218.22;4965299;28;20224;-69
2024/01/31 02:36:32;;;;;;;29.20;15.07;;;;;;;5.86;100.00;102226.28;4967752;28;20209;-69
2024/01/31 02:38:58;;;;;;;30.20;15.60;;;;;;;5.85;100.00;102211.34;4973371;28;20201;-70
2024/01/31 02:41:25;;;;;;;30.27;16.30;;;;;;;5.89;100.00;102217.69;4970399;28;20211;-68
2024/01/31 02:43:52;;;;;;;30.87;16.57;;;;;;;5.91;100.00;102213.47;4969569;28;20646;-68
2024/01/31 02:46:18;;;;;;;27.90;15.13;;;;;;;5.91;100.00;102217.00;4965913;28;20289;-68
2024/01/31 02:48:46;;;;;;;28.10;15.23;;;;;;;5.92;100.00;102215.28;4968778;28;20199;-68
2024/01/31 02:51:13;;;;;;;24.97;14.57;;;;;;;5.90;100.00;102217.81;4966372;28;20214;-69
2024/01/31 02:53:39;;;;;;;29.30;15.83;;;;;;;5.87;100.00;102214.97;4968617;28;20217;-69
2024/01/31 02:56:07;;;;;;;28.93;15.17;;;;;;;5.85;100.00;102219.22;4970444;28;20215;-69
2024/01/31 02:58:35;;;;;;;29.77;15.93;;;;;;;5.83;100.00;102198.91;4966213;28;20211;-68
2024/01/31 03:01:06;;;;;;;28.33;15.33;;;;;;;5.86;100.00;102202.63;4962481;28;20209;-68
2024/01/31 03:03:33;;;;;;;26.90;15.27;;;;;;;5.84;100.00;102205.97;4969566;28;20222;-68
2024/01/31 03:05:59;;;;;;;29.73;15.00;;;;;;;5.96;100.00;102196.25;4963021;28;20292;-68
2024/01/31 03:08:26;;;;;;;30.30;15.77;;;;;;;6.06;100.00;102211.78;4967001;28;20207;-68
2024/01/31 03:10:52;;;;;;;29.87;15.17;;;;;;;6.00;100.00;102206.13;4964864;28;20208;-69
2024/01/31 03:13:18;;;;;;;27.47;14.83;;;;;;;5.96;100.00;102202.41;4969702;28;20227;-68
2024/01/31 03:15:45;;;;;;;27.47;14.97;;;;;;;5.89;100.00;102204.53;4970750;28;20201;-68
2024/01/31 03:18:11;;;;;;;30.17;15.63;;;;;;;5.86;100.00;102215.78;4963184;28;20716;-69
2024/01/31 03:20:38;;;;;;;29.27;14.33;;;;;;;5.83;100.00;102212.97;4962992;28;20209;-68
2024/01/31 03:23:04;;;;;;;24.13;13.20;;;;;;;5.82;100.00;102220.75;4964150;28;20217;-69
2024/01/31 03:25:31;;;;;;;24.50;13.93;;;;;;;5.82;100.00;102229.56;4966387;28;20304;-69
2024/01/31 03:27:57;;;;;;;25.83;14.40;;;;;;;5.80;100.00;102239.06;4968631;28;20260;-69
2024/01/31 03:30:24;;;;;;;24.20;12.87;;;;;;;5.80;100.00;102241.69;4962903;28;20194;-69
2024/01/31 03:32:50;;;;;;;23.17;12.63;;;;;;;5.82;100.00;102244.41;4968421;28;20311;-69
2024/01/31 03:35:17;;;;;;;26.23;13.53;;;;;;;5.85;100.00;102241.97;4964339;28;20197;-69
2024/01/31 03:37:44;;;;;;;24.10;11.93;;;;;;;5.79;100.00;102237.25;4968592;28;20221;-69
2024/01/31 03:40:10;;;;;;;25.50;13.40;;;;;;;5.84;100.00;102233.19;4970165;28;20292;-69
2024/01/31 03:42:37;;;;;;;25.30;12.43;;;;;;;5.78;100.00;102234.53;4964753;28;20276;-70
2024/01/31 03:45:05;;;;;;;17.40;8.17;;;;;;;5.79;100.00;102237.25;4962585;28;20204;-69
2024/01/31 03:47:34;;;;;;;17.67;10.50;;;;;;;5.81;100.00;102237.34;4968353;28;20209;-69
2024/01/31 03:50:02;;;;;;;17.40;10.10;;;;;;;5.77;100.00;102235.34;4965165;28;20228;-69
2024/01/31 03:52:30;;;;;;;18.33;9.63;;;;;;;5.82;100.00;102237.44;4969583;28;20239;-69
2024/01/31 03:54:57;;;;;;;22.37;9.10;;;;;;;5.83;100.00;102235.72;4963087;28;20201;-69
2024/01/31 03:57:23;;;;;;;15.00;7.50;;;;;;;5.76;100.00;102233.53;4964742;28;20207;-69
2024/01/31 03:59:50;;;;;;;11.30;7.57;;;;;;;5.66;100.00;102237.31;4966296;28;20473;-69
2024/01/31 04:02:16;;;;;;;10.37;5.37;;;;;;;5.61;100.00;102236.13;4967524;28;20201;-69
2024/01/31 04:04:43;;;;;;;11.53;6.07;;;;;;;5.52;100.00;102235.50;4961718;28;20224;-69
2024/01/31 04:07:09;;;;;;;9.60;5.00;;;;;;;5.65;100.00;102236.41;4964836;28;20284;-68
2024/01/31 04:09:36;;;;;;;8.83;4.30;;;;;;;5.66;100.00;102230.31;4965296;28;20207;-69
2024/01/31 04:12:02;;;;;;;6.43;3.40;;;;;;;5.74;100.00;102229.88;4968837;28;20620;-69
2024/01/31 04:14:29;;;;;;;7.17;4.10;;;;;;;5.68;100.00;102232.16;4969759;28;20200;-68
2024/01/31 04:16:55;;;;;;;7.03;4.50;;;;;;;5.51;100.00;102234.59;4965649;28;20207;-69
2024/01/31 04:19:22;;;;;;;7.60;4.47;;;;;;;5.34;100.00;102232.63;4968687;28;20283;-68
2024/01/31 04:21:48;;;;;;;8.20;4.27;;;;;;;5.26;100.00;102236.50;4968820;28;20250;-69
2024/01/31 04:24:14;;;;;;;9.40;4.20;;;;;;;5.19;100.00;102234.25;4962024;28;20228;-69
2024/01/31 04:26:43;;;;;;;5.77;3.40;;;;;;;5.05;100.00;102241.25;4968908;28;20673;-68
2024/01/31 04:29:10;;;;;;;8.00;4.30;;;;;;;4.83;100.00;102243.28;4959245;28;20205;-68
2024/01/31 04:31:36;;;;;;;8.17;4.30;;;;;;;4.60;100.00;102252.25;4967234;28;20223;-68
2024/01/31 04:34:04;;;;;;;8.73;4.27;;;;;;;4.34;100.00;102250.47;4967659;28;20727;-68
2024/01/31 04:36:32;;;;;;;6.03;4.03;;;;;;;4.21;100.00;102271.44;4969814;28;20202;-69
2024/01/31 04:38:59;;;;;;;8.93;4.40;;;;;;;4.06;100.00;102271.28;4968484;28;20297;-68
2024/01/31 04:41:26;;;;;;;7.03;3.93;;;;;;;3.90;100.00;102268.38;4962286;28;20206;-68
2024/01/31 04:43:53;;;;;;;5.27;2.77;;;;;;;3.86;100.00;102263.72;4966054;28;20262;-68
2024/01/31 04:46:19;;;;;;;5.97;3.83;;;;;;;3.89;100.00;102267.47;4967868;28;20397;-69
2024/01/31 04:48:48;;;;;;;8.10;4.30;;;;;;;3.92;100.00;102270.28;4968856;28;20289;-69
2024/01/31 04:51:14;;;;;;;6.17;3.70;;;;;;;4.01;100.00;102262.19;4970147;28;20217;-69
2024/01/31 04:53:41;;;;;;;6.97;3.40;;;;;;;3.96;100.00;102260.94;4965642;28;20222;-68
2024/01/31 04:56:08;;;;;;;4.93;2.73;;;;;;;3.94;100.00;102254.69;4968157;28;20293;-69
2024/01/31 04:58:37;;;;;;;9.47;4.10;;;;;;;3.96;100.00;102260.94;4965340;28;20208;-69
2024/01/31 05:01:05;;;;;;;7.23;3.20;;;;;;;3.96;100.00;102253.06;4969710;28;20603;-69
2024/01/31 05:03:31;;;;;;;5.17;2.50;;;;;;;4.43;100.00;102250.22;4966035;28;20233;-69
2024/01/31 05:05:58;;;;;;;4.63;2.33;;;;;;;4.58;100.00;102243.38;4969041;28;20204;-69
2024/01/31 05:08:27;;;;;;;4.80;2.53;;;;;;;4.68;100.00;102254.56;4972669;28;20229;-68
2024/01/31 05:10:54;;;;;;;4.03;2.27;;;;;;;4.86;100.00;102251.38;4971295;28;20198;-68
2024/01/31 05:13:21;;;;;;;2.27;1.70;;;;;;;5.02;100.00;102246.31;4972098;28;20734;-68
2024/01/31 05:15:47;;;;;;;4.37;2.10;;;;;;;5.08;100.00;102253.66;4973069;28;20559;-68
2024/01/31 05:18:14;;;;;;;3.30;2.20;;;;;;;5.19;100.00;102250.00;4969822;28;20462;-69
2024/01/31 05:20:41;;;;;;;2.23;1.77;;;;;;;5.27;100.00;102239.22;4970212;28;20202;-67
2024/01/31 05:23:07;;;;;;;1.90;1.50;;;;;;;5.43;100.00;102245.44;4973410;28;20219;-68
2024/01/31 05:25:33;;;;;;;3.17;1.80;;;;;;;5.48;100.00;102251.88;4970329;28;20411;-68
2024/01/31 05:28:00;;;;;;;4.30;1.73;;;;;;;5.46;100.00;102243.91;4967261;28;20307;-68
2024/01/31 05:30:27;;;;;;;2.93;1.63;;;;;;;5.50;100.00;102248.56;4968861;28;20200;-68
2024/01/31 05:32:53;;;;;;;2.50;1.60;;;;;;;5.56;100.00;102255.91;4959455;28;20990;-67
2024/01/31 05:35:20;;;;;;;3.47;1.77;;;;;;;5.55;100.00;102249.75;4967351;28;20283;-68
2024/01/31 05:37:47;;;;;;;4.47;1.87;;;;;;;5.63;100.00;102253.78;4968877;28;20304;-68
2024/01/31 05:40:16;;;;;;;3.40;1.80;;;;;;;5.69;100.00;102255.91;4972482;28;20199;-68
2024/01/31 05:42:43;;;;;;;2.93;2.00;;;;;;;5.71;100.00;102253.34;4968957;28;20224;-68
2024/01/31 05:45:11;;;;;;;2.20;1.60;;;;;;;5.74;100.00;102243.94;4968206;28;20224;-68
2024/01/31 05:47:37;;;;;;;2.30;1.60;;;;;;;5.78;100.00;102247.66;4969855;28;20292;-68
2024/01/31 05:50:04;;;;;;;4.90;2.17;;;;;;;5.84;100.00;102241.06;4985049;28;20220;-67
2024/01/31 05:52:31;;;;;;;2.40;1.77;;;;;;;5.89;100.00;102244.91;4970533;28;20323;-68
2024/01/31 05:54:57;;;;;;;2.87;1.87;;;;;;;5.93;100.00;102239.03;4973174;28;20196;-68
2024/01/31 05:57:24;;;;;;;4.37;1.90;;;;;;;5.91;100.00;102238.03;4973180;28;20198;-68
2024/01/31 05:59:50;;;;;;;2.53;1.83;;;;;;;5.92;100.00;102229.31;4966704;28;20209;-68
2024/01/31 06:02:17;;;;;;;3.77;1.90;;;;;;;5.88;100.00;102231.63;4968641;28;20256;-68
2024/01/31 06:04:43;;;;;;;3.57;1.90;;;;;;;5.81;100.00;102219.84;4969157;28;20221;-68
2024/01/31 06:07:12;;;;;;;3.03;1.87;;;;;;;5.64;100.00;102218.81;4966407;28;20572;-69
2024/01/31 06:09:39;;;;;;;4.47;1.93;;;;;;;5.48;100.00;102217.72;4965077;28;20206;-68
2024/01/31 06:12:06;;;;;;;3.97;1.80;;;;;;;5.31;100.00;102209.72;4965902;28;20365;-69
2024/01/31 06:14:37;;;;;;;3.63;2.10;;;;;;;5.13;100.00;102212.84;4969758;28;20712;-68
2024/01/31 06:17:03;;;;;;;3.87;2.20;;;;;;;4.93;100.00;102219.44;4968082;28;20232;-68
2024/01/31 06:19:30;;;;;;;5.93;2.23;;;;;;;4.74;100.00;102222.56;4966434;28;20488;-68
2024/01/31 06:21:56;;;;;;;4.03;2.00;;;;;;;4.58;100.00;102219.75;4957852;28;20229;-68
2024/01/31 06:24:23;;;;;;;3.13;1.83;;;;;;;4.41;100.00;102234.38;4961143;28;20335;-69
2024/01/31 06:26:49;;;;;;;3.20;2.20;;;;;;;4.21;100.00;102245.19;4966236;28;20655;-69
2024/01/31 06:29:18;;;;;;;4.00;1.90;;;;;;;3.99;100.00;102245.41;4967434;28;20193;-68
2024/01/31 06:31:48;;;;;;;4.10;1.90;;;;;;;3.85;100.00;102257.56;4961852;28;20583;-68
2024/01/31 06:34:15;;;;;;;4.30;2.17;;;;;;;3.74;100.00;102256.81;4957220;28;20710;-68
2024/01/31 06:36:43;;;;;;;4.73;2.50;;;;;;;3.67;100.00;102258.91;4959463;28;20207;-68
2024/01/31 06:39:09;;;;;;;6.13;2.33;;;;;;;3.68;100.00;102269.50;4961297;28;20571;-68
2024/01/31 06:41:37;;;;;;;3.30;1.90;;;;;;;3.72;100.00;102265.38;4964036;28;20203;-68
2024/01/31 06:44:03;;;;;;;3.97;2.57;;;;;;;3.80;100.00;102277.31;4968161;28;20233;-68
2024/01/31 06:46:30;;;;;;;6.43;2.60;;;;;;;3.89;100.00;102279.66;4959926;28;20285;-68
2024/01/31 06:48:57;;;;;;;4.97;3.03;;;;;;;4.00;100.00;102282.25;4949503;28;20301;-67
2024/01/31 06:51:23;;;;;;;5.07;3.17;;;;;;;4.06;100.00;102277.44;4959946;28;20250;-69
2024/01/31 06:53:50;;;;;;;6.10;3.10;;;;;;;4.23;100.00;102288.16;4964178;28;20216;-69
2024/01/31 06:56:19;;;;;;;6.93;3.17;;;;;;;4.34;100.00;102293.34;4960241;28;20196;-69
2024/01/31 06:58:47;;;;;;;4.53;2.73;;;;;;;4.42;100.00;102290.38;4959366;28;20209;-68
2024/01/31 07:01:20;;;;;;;6.40;2.93;;;;;;;4.52;100.00;102285.84;4955790;28;20567;-68
2024/01/31 07:03:47;;;;;;;6.37;2.93;;;;;;;4.53;100.00;102285.03;4958157;28;20227;-68
2024/01/31 07:06:15;;;;;;;5.73;3.27;;;;;;;4.50;100.00;102295.31;4960125;28;20210;-69
2024/01/31 07:08:42;;;;;;;6.07;3.17;;;;;;;4.47;100.00;102288.97;4948718;28;20205;-69
2024/01/31 07:11:09;;;;;;;6.97;3.43;;;;;;;4.42;100.00;102288.66;4960536;28;20204;-69
2024/01/31 07:13:36;;;;;;;4.93;3.07;;;;;;;4.37;100.00;102292.63;4968204;28;20391;-70
2024/01/31 07:16:04;;;;;;;4.90;3.20;;;;;;;4.40;100.00;102293.78;4963398;28;20221;-69
2024/01/31 07:18:31;;;;;;;6.63;3.40;;;;;;;4.42;100.00;102298.22;4967868;28;20231;-69
2024/01/31 07:20:57;;;;;;;7.20;3.90;;;;;;;4.48;100.00;102298.66;4968028;28;20248;-69
2024/01/31 07:23:24;;;;;;;6.40;3.60;;;;;;;4.56;100.00;102305.31;4958805;28;20220;-69
2024/01/31 07:25:50;;;;;;;8.70;3.60;;;;;;;4.71;100.00;102315.13;4962242;28;20226;-70
2024/01/31 07:28:17;;;;;;;7.70;3.33;;;;;;;4.88;100.00;102305.78;4966971;28;20224;-69
2024/01/31 07:30:44;;;;;;;5.23;3.20;;;;;;;4.92;100.00;102314.78;4965874;28;20701;-69
2024/01/31 07:33:10;;;;;;;8.13;3.60;;;;;;;4.91;100.00;102302.44;4966398;28;20537;-69
2024/01/31 07:35:36;;;;;;;4.77;3.27;;;;;;;4.94;100.00;102298.31;4964932;28;20680;-69
2024/01/31 07:38:03;;;;;;;4.87;3.10;;;;;;;5.11;100.00;102311.63;4962831;28;20201;-70
2024/01/31 07:40:29;;;;;;;7.37;3.60;;;;;;;5.17;100.00;102307.69;4958267;28;20329;-70
2024/01/31 07:42:58;;;;;;;5.50;3.80;;;;;;;5.26;100.00;102310.94;4960957;28;20244;-69
2024/01/31 07:45:27;;;;;;;8.80;4.10;;;;;;;5.35;100.00;102305.38;4961625;28;20263;-69
2024/01/31 07:47:53;;;;;;;6.30;3.70;;;;;;;5.44;100.00;102302.44;4956409;28;20215;-70
2024/01/31 07:50:20;;;;;;;8.27;3.87;;;;;;;5.51;100.00;102302.00;4960763;28;20197;-70
2024/01/31 07:52:46;;;;;;;7.13;3.80;;;;;;;5.58;100.00;102304.22;4954712;28;20256;-69
2024/01/31 07:55:13;;;;;;;7.27;3.77;;;;;;;5.60;100.00;102293.03;4964772;28;20196;-69
2024/01/31 07:57:39;;;;;;;7.67;4.00;;;;;;;5.73;100.00;102302.59;4960963;28;20257;-69
2024/01/31 08:00:07;;;;;;;6.73;4.00;;;;;;;5.78;100.00;102301.16;4958576;28;20205;-69
2024/01/31 08:02:33;;;;;;;6.60;3.97;;;;;;;5.87;100.00;102292.94;4957961;28;20296;-70
2024/01/31 08:05:00;;;;;;;7.20;3.80;;;;;;;5.96;100.00;102304.97;4960390;28;20224;-69
2024/01/31 08:07:26;;;;;;;9.73;5.00;;;;;;;6.09;100.00;102301.41;4958172;28;20239;-69
2024/01/31 08:09:53;;;;;;;11.47;6.17;;;;;;;6.17;100.00;102296.59;4962772;28;20582;-69
2024/01/31 08:12:19;;;;;;;12.77;5.33;;;;;;;6.17;100.00;102293.97;4963534;28;20247;-70
2024/01/31 08:14:45;;;;;;;9.50;5.33;;;;;;;6.29;100.00;102297.34;4963197;28;20213;-70
2024/01/31 08:17:12;;;;;;;11.73;5.20;;;;;;;6.43;100.00;102292.94;4963766;28;20205;-69
2024/01/31 08:19:38;;;;;;;9.10;4.40;;;;;;;6.59;100.00;102293.94;4957082;28;20618;-70
2024/01/31 08:22:05;;;;;;;10.40;4.47;;;;;;;6.59;100.00;102291.31;4961553;28;20205;-69
2024/01/31 08:24:31;;;;;;;7.47;4.53;;;;;;;6.66;100.00;102292.59;4959077;28;20218;-69
2024/01/31 08:26:58;;;;;;;7.50;4.73;;;;;;;6.83;100.00;102283.97;4960068;28;20597;-69
2024/01/31 08:29:25;;;;;;;14.07;4.57;;;;;;;6.92;100.00;102296.75;4961827;28;20200;-69
2024/01/31 08:31:53;;;;;;;13.60;4.80;;;;;;;6.87;100.00;102300.84;4964045;28;20289;-69
2024/01/31 08:34:20;;;;;;;6.30;4.07;;;;;;;6.73;100.00;102310.56;4960464;28;20221;-69
2024/01/31 08:36:48;;;;;;;7.33;4.27;;;;;;;6.84;100.00;102300.69;4958125;28;20658;-69
2024/01/31 08:39:14;;;;;;;8.93;4.33;;;;;;;6.97;100.00;102297.94;4963597;28;20212;-69
2024/01/31 08:41:41;;;;;;;6.10;3.63;;;;;;;7.04;100.00;102296.56;4966729;28;20208;-67
2024/01/31 08:44:09;;;;;;;8.27;4.10;;;;;;;7.01;100.00;102296.38;4963456;28;20260;-69
2024/01/31 08:46:35;;;;;;;9.23;5.03;;;;;;;7.06;100.00;102308.09;4961059;28;20208;-68
2024/01/31 08:49:21;;;;;;;8.67;4.23;;;;;;;7.06;100.00;102303.75;4960597;28;20203;-68
2024/01/31 08:51:48;;;;;;;8.13;4.00;;;;;;;7.16;100.00;102292.91;4960531;28;20208;-69
2024/01/31 08:54:14;;;;;;;6.43;3.97;;;;;;;7.26;100.00;102289.09;4960311;28;20221;-68
2024/01/31 08:56:41;;;;;;;8.37;4.83;;;;;;;7.40;100.00;102288.13;4966667;28;20553;-68
2024/01/31 08:59:07;;;;;;;10.23;4.70;;;;;;;7.47;100.00;102285.03;4966546;28;20204;-69
2024/01/31 09:01:34;;;;;;;7.90;3.93;;;;;;;7.61;100.00;102287.53;4980501;28;20213;-69
2024/01/31 09:04:00;;;;;;;6.43;3.73;;;;;;;7.83;100.00;102287.88;4982846;28;20221;-69
2024/01/31 09:06:26;;;;;;;9.53;4.53;;;;;;;7.83;100.00;102286.16;4958945;28;20600;-69
2024/01/31 09:08:53;;;;;;;8.67;4.40;;;;;;;7.87;100.00;102284.59;4965925;28;20206;-69
2024/01/31 09:11:19;;;;;;;6.63;3.90;;;;;;;7.98;100.00;102287.81;4960629;28;20242;-69
2024/01/31 09:13:47;;;;;;;9.47;4.40;;;;;;;8.04;100.00;102297.00;4958653;28;20719;-68
2024/01/31 09:16:13;;;;;;;6.87;4.10;;;;;;;8.08;100.00;102284.88;4962272;28;20250;-68
2024/01/31 09:18:40;;;;;;;6.30;4.17;;;;;;;8.17;100.00;102288.00;4958940;28;20210;-69
2024/01/31 09:21:07;;;;;;;5.63;3.53;;;;;;;8.32;100.00;102290.53;4965685;28;20253;-69
2024/01/31 09:23:34;;;;;;;6.93;4.13;;;;;;;8.44;100.00;102284.22;4963074;28;20250;-69
2024/01/31 09:26:02;;;;;;;7.73;3.80;;;;;;;8.53;100.00;102286.41;4958955;28;20233;-68
2024/01/31 09:28:28;;;;;;;6.63;3.70;;;;;;;8.63;100.00;102285.16;4958046;28;20200;-68
2024/01/31 09:30:54;;;;;;;6.53;3.87;;;;;;;8.75;100.00;102278.75;4961852;28;20205;-68
2024/01/31 09:33:21;;;;;;;6.80;4.23;;;;;;;8.86;100.00;102281.97;4964895;28;20229;-68
2024/01/31 09:35:48;;;;;;;8.57;3.70;;;;;;;8.98;100.00;102282.56;4965419;28;20202;-68
2024/01/31 09:38:14;;;;;;;5.30;3.60;;;;;;;9.10;100.00;102267.31;4965220;28;20264;-70
2024/01/31 09:40:41;;;;;;;7.60;3.47;;;;;;;9.24;100.00;102265.38;4960624;28;20217;-69
2024/01/31 09:43:08;;;;;;;5.60;3.13;;;;;;;9.28;100.00;102259.41;4965352;28;20313;-68
2024/01/31 09:45:37;;;;;;;11.00;3.40;;;;;;;9.25;100.00;102269.81;4963622;28;20581;-70
2024/01/31 09:48:04;;;;;;;5.43;3.03;;;;;;;8.96;100.00;102272.75;4965761;28;20238;-69
2024/01/31 09:50:31;;;;;;;4.30;2.90;;;;;;;9.17;100.00;102275.53;4968585;28;20199;-69
2024/01/31 09:53:01;;;;;;;4.43;3.00;;;;;;;9.18;100.00;102275.63;4967368;28;20237;-69
2024/01/31 09:55:29;;;;;;;5.10;3.10;;;;;;;9.30;100.00;102262.13;4969582;28;20224;-68
2024/01/31 09:57:56;;;;;;;6.40;3.50;;;;;;;9.15;100.00;102270.19;4968029;28;20210;-69
2024/01/31 10:00:22;;;;;;;6.67;3.40;;;;;;;9.03;100.00;102269.59;4972384;28;20213;-69
2024/01/31 10:02:49;;;;;;;5.87;3.00;;;;;;;9.10;100.00;102262.03;4969008;28;20218;-70
2024/01/31 10:05:16;;;;;;;4.77;3.13;;;;;;;9.24;100.00;102270.66;4966766;28;20227;-69
2024/01/31 10:07:42;;;;;;;5.90;3.73;;;;;;;9.15;100.00;102272.81;4962155;28;20237;-69
2024/01/31 10:10:10;;;;;;;8.40;4.10;;;;;;;9.06;100.00;102270.63;4967878;28;20674;-69
2024/01/31 10:12:38;;;;;;;9.97;4.50;;;;;;;9.22;100.00;102271.41;4966685;28;20276;-69
2024/01/31 10:15:09;;;;;;;5.60;3.70;;;;;;;9.29;100.00;102270.88;4967021;28;20223;-68
2024/01/31 10:17:35;;;;;;;5.90;4.07;;;;;;;9.38;100.00;102266.03;4968311;28;20198;-70
2024/01/31 10:20:10;;;;;;;8.33;4.40;;;;;;;9.57;100.00;102283.66;4960722;28;20225;-69
2024/01/31 10:22:37;;;;;;;6.20;4.03;;;;;;;9.72;100.00;102279.13;4970212;28;20230;-70
2024/01/31 10:25:08;;;;;;;6.73;4.47;;;;;;;9.70;100.00;102284.34;4967100;28;20556;-71
2024/01/31 10:27:36;;;;;;;6.97;4.23;;;;;;;9.65;100.00;102282.31;4969956;28;20198;-69
2024/01/31 10:30:04;;;;;;;7.27;4.40;;;;;;;9.53;100.00;102272.03;4966637;28;20208;-68
2024/01/31 10:32:32;;;;;;;5.90;3.77;;;;;;;9.46;100.00;102272.59;4966472;28;20219;-69
2024/01/31 10:35:01;;;;;;;7.00;3.43;;;;;;;9.29;100.00;102273.53;4960806;28;20217;-69
2024/01/31 10:37:48;;;;;;;8.00;3.87;;;;;;;9.27;100.00;102281.38;4966320;28;20575;-70
2024/01/31 10:40:27;;;;;;;6.40;3.27;;;;;;;9.12;100.00;102277.97;4968058;28;20229;-71
2024/01/31 10:42:57;;;;;;;7.63;3.27;;;;;;;9.27;100.00;102269.91;4966781;28;20218;-70
2024/01/31 10:45:24;;;;;;;6.07;3.20;;;;;;;9.40;100.00;102265.28;4967804;28;20266;-69
2024/01/31 10:47:52;;;;;;;5.57;2.87;;;;;;;9.46;100.00;102269.94;4961219;28;20557;-70
2024/01/31 10:50:19;;;;;;;4.83;2.80;;;;;;;9.57;100.00;102257.22;4963178;28;20205;-70
2024/01/31 10:52:47;;;;;;;3.97;2.37;;;;;;;9.74;93.74;102259.84;4963743;28;20732;-70
2024/01/31 10:55:13;;;;;;;3.83;2.30;;;;;;;9.91;86.93;102263.25;4967178;28;20252;-71
2024/01/31 10:57:42;;;;;;;2.93;1.63;;;;;;;9.71;79.29;102256.16;4965906;28;20211;-70
2024/01/31 11:00:10;;;;;;;2.30;1.70;;;;;;;9.70;77.85;102257.88;4970964;28;20719;-69
2024/01/31 11:02:37;;;;;;;2.43;1.63;;;;;;;9.95;78.53;102259.91;4966201;28;20247;-69
2024/01/31 11:05:04;;;;;;;3.57;1.73;;;;;;;10.04;76.16;102244.47;4960034;28;20233;-68
2024/01/31 11:07:31;;;;;;;3.70;1.80;;;;;;;10.12;75.84;102246.56;4969944;28;20280;-69
2024/01/31 11:09:57;;;;;;;3.20;1.80;;;;;;;10.28;75.66;102255.28;4971377;28;20576;-69
2024/01/31 11:12:28;;;;;;;2.73;1.57;;;;;;;10.24;74.62;102252.44;4970629;28;20615;-68
2024/01/31 11:14:57;;;;;;;2.23;1.77;;;;;;;10.15;73.89;102251.97;4965203;28;20205;-68
2024/01/31 11:17:23;;;;;;;3.83;1.73;;;;;;;10.55;73.51;102242.34;4965578;28;20615;-68
2024/01/31 11:19:58;;;;;;;3.33;1.87;;;;;;;10.61;71.33;102239.03;4968188;28;20228;-67